Terminal Aerodrome Forecast
Issued by NWS New Orleans/Baton Rouge, LA

Home | Current Version | Previous Version | Text Only | Print | Product List | Glossary On
Versions: 1 2 3 4 5 6 7 8 9 10 11 12 13 14 15
000
FTUS44 KLIX 231730
TAFBTR
TAF
KBTR 231730Z 2318/2418 30012KT P6SM SKC
     FM232300 29006KT P6SM SKC
     FM240400 00000KT P6SM SKC
     FM241500 16006KT P6SM SKC=

USA.gov is the U.S. government's official web portal to all federal, state and local government web resources and services.